createdAt,value
2023-05-21T00:00:24.359Z,11.51
2023-05-21T00:03:15.083Z,11.50
2023-05-21T00:06:04.029Z,11.49
2023-05-21T00:08:51.981Z,11.51
2023-05-21T00:11:25.500Z,11.38
2023-05-21T00:14:12.898Z,11.50
2023-05-21T00:16:47.218Z,11.45
2023-05-21T00:19:35.037Z,11.57
2023-05-21T00:22:09.467Z,11.44
2023-05-21T00:24:42.861Z,11.41
2023-05-21T00:27:30.606Z,11.53
2023-05-21T00:30:05.071Z,11.43
2023-05-21T00:32:40.290Z,11.45
2023-05-21T00:35:14.006Z,11.47
2023-05-21T00:38:03.055Z,11.58
2023-05-21T00:40:37.364Z,11.48
2023-05-21T00:43:10.960Z,11.53
2023-05-21T00:45:59.574Z,11.63
2023-05-21T00:48:35.286Z,11.52
2023-05-21T00:51:09.160Z,11.53
2023-05-21T00:53:57.870Z,11.68
2023-05-21T00:56:45.904Z,11.70
2023-05-21T00:59:19.687Z,11.60
2023-05-21T01:02:09.607Z,11.67
2023-05-21T01:04:43.172Z,11.51
2023-05-21T01:07:30.832Z,11.53
2023-05-21T01:10:18.845Z,11.48
2023-05-21T01:12:57.565Z,11.35
2023-05-21T01:15:46.459Z,11.47
2023-05-21T01:18:35.428Z,11.47
2023-05-21T01:21:09.934Z,11.36
2023-05-21T01:23:59.133Z,11.46
2023-05-21T01:26:33.876Z,11.40
2023-05-21T01:29:21.965Z,11.58
2023-05-21T01:32:00.276Z,11.52
2023-05-21T01:34:52.004Z,11.68
2023-05-21T01:37:43.836Z,11.74
2023-05-21T01:40:20.205Z,11.66
2023-05-21T01:43:09.778Z,11.79
2023-05-21T01:45:45.486Z,11.70
2023-05-21T01:48:33.933Z,11.86
2023-05-21T01:51:08.582Z,11.78
2023-05-21T01:53:42.235Z,11.81
2023-05-21T01:56:30.063Z,11.99
2023-05-21T01:59:18.519Z,11.97
2023-05-21T02:01:52.237Z,11.89
2023-05-21T02:04:41.349Z,12.06
2023-05-21T02:07:15.231Z,11.95
2023-05-21T02:10:03.378Z,12.02
2023-05-21T02:12:36.947Z,11.87
2023-05-21T02:15:25.186Z,11.98
2023-05-21T02:18:14.550Z,11.99
2023-05-21T02:21:02.363Z,12.04
2023-05-21T02:23:36.226Z,11.98
2023-05-21T02:26:23.850Z,12.15
2023-05-21T02:28:57.994Z,12.04
2023-05-21T02:31:45.913Z,12.17
2023-05-21T02:34:35.150Z,12.17
2023-05-21T02:37:09.855Z,12.00
2023-05-21T02:39:57.869Z,12.21
2023-05-21T02:42:31.726Z,12.12
2023-05-21T02:45:19.407Z,12.25
2023-05-21T02:47:52.963Z,12.16
2023-05-21T02:50:40.857Z,12.27
2023-05-21T02:53:14.475Z,12.15
2023-05-21T02:56:02.220Z,12.23
2023-05-21T02:58:36.090Z,12.14
2023-05-21T03:01:23.842Z,12.30
2023-05-21T03:03:57.276Z,12.18
2023-05-21T03:06:46.664Z,12.28
2023-05-21T03:09:21.949Z,12.21
2023-05-21T03:11:56.840Z,12.29
2023-05-21T03:14:30.235Z,12.31
2023-05-21T03:17:19.011Z,12.50
2023-05-21T03:19:52.593Z,12.39
2023-05-21T03:22:40.306Z,12.58
2023-05-21T03:25:28.483Z,12.65
2023-05-21T03:28:02.148Z,12.51
2023-05-21T03:30:52.267Z,12.62
2023-05-21T03:33:42.699Z,12.48
2023-05-21T03:36:38.271Z,12.56
2023-05-21T03:39:12.642Z,12.44
2023-05-21T03:41:46.580Z,12.58
2023-05-21T03:44:35.666Z,12.77
2023-05-21T03:47:27.662Z,12.78
2023-05-21T03:50:03.424Z,12.63
2023-05-21T03:52:51.214Z,12.82
2023-05-21T03:55:24.927Z,12.78
2023-05-21T03:58:12.218Z,12.97
2023-05-21T04:00:46.245Z,12.88
2023-05-21T04:03:37.256Z,12.99
2023-05-21T04:06:25.840Z,12.91
2023-05-21T04:09:13.438Z,12.85
2023-05-21T04:12:00.969Z,12.85
2023-05-21T04:14:35.504Z,12.78
2023-05-21T04:17:23.156Z,13.07
2023-05-21T04:20:13.760Z,13.32
2023-05-21T04:22:47.329Z,13.29
2023-05-21T04:25:35.299Z,13.52
2023-05-21T04:28:24.341Z,13.58
2023-05-21T04:30:57.984Z,13.40
2023-05-21T04:33:31.562Z,13.42
2023-05-21T04:36:19.341Z,13.64
2023-05-21T04:38:53.618Z,13.60
2023-05-21T04:41:41.760Z,13.74
2023-05-21T04:44:15.658Z,13.62
2023-05-21T04:47:04.453Z,13.81
2023-05-21T04:49:37.830Z,13.76
2023-05-21T04:52:11.525Z,13.81
2023-05-21T04:54:59.140Z,13.99
2023-05-21T04:57:35.286Z,13.93
2023-05-21T05:00:24.767Z,14.09
2023-05-21T05:03:12.763Z,13.99
2023-05-21T05:06:00.536Z,13.78
2023-05-21T05:08:48.531Z,13.65
2023-05-21T05:11:22.482Z,13.41
2023-05-21T05:14:10.579Z,13.43
2023-05-21T05:16:44.187Z,13.29
2023-05-21T05:19:32.096Z,13.54
2023-05-21T05:22:05.939Z,13.60
2023-05-21T05:24:54.149Z,13.82
2023-05-21T05:27:27.892Z,13.74
2023-05-21T05:30:15.854Z,13.98
2023-05-21T05:32:49.386Z,13.87
2023-05-21T05:35:37.210Z,14.05
2023-05-21T05:38:10.597Z,13.98
2023-05-21T05:40:58.479Z,14.16
2023-05-21T05:43:32.260Z,14.04
2023-05-21T05:46:20.529Z,14.20
2023-05-21T05:48:54.061Z,14.11
2023-05-21T05:51:42.500Z,14.36
2023-05-21T05:54:30.219Z,14.47
2023-05-21T05:57:17.940Z,14.49
2023-05-21T05:59:51.626Z,14.28
2023-05-21T06:02:25.240Z,14.23
2023-05-21T06:04:59.570Z,14.13
2023-05-21T06:07:47.216Z,14.13
2023-05-21T06:10:21.382Z,13.82
2023-05-21T06:12:54.803Z,13.72
2023-05-21T06:15:28.349Z,13.59
2023-05-21T06:18:22.142Z,13.59
2023-05-21T06:20:55.682Z,13.46
2023-05-21T06:23:29.394Z,13.63
2023-05-21T06:26:18.783Z,13.94
2023-05-21T06:29:07.237Z,14.10
2023-05-21T06:31:55.095Z,14.24
2023-05-21T06:34:28.757Z,14.17
2023-05-21T06:37:17.847Z,14.42
2023-05-21T06:39:51.408Z,14.63
2023-05-21T06:42:25.054Z,15.27
2023-05-21T06:45:15.400Z,16.17
2023-05-21T06:47:50.595Z,16.78
2023-05-21T06:50:38.647Z,17.17
2023-05-21T06:53:14.011Z,17.12
2023-05-21T06:56:01.918Z,17.35
2023-05-21T06:58:49.022Z,17.31
2023-05-21T07:01:23.400Z,17.50
2023-05-21T07:03:56.836Z,17.70
2023-05-21T07:06:45.505Z,18.52
2023-05-21T07:09:19.529Z,18.63
2023-05-21T07:12:08.550Z,18.95
2023-05-21T07:14:41.910Z,18.82
2023-05-21T07:17:29.760Z,18.87
2023-05-21T07:20:04.569Z,18.80
2023-05-21T07:22:39.698Z,19.07
2023-05-21T07:25:28.221Z,19.47
2023-05-21T07:28:01.524Z,19.34
2023-05-21T07:30:49.491Z,19.72
2023-05-21T07:33:39.058Z,20.38
2023-05-21T07:36:28.608Z,21.38
2023-05-21T07:39:01.913Z,20.99
2023-05-21T07:41:35.361Z,21.29
2023-05-21T07:44:25.420Z,20.90
2023-05-21T07:47:13.154Z,20.36
2023-05-21T07:49:46.851Z,20.99
2023-05-21T07:52:20.616Z,21.68
2023-05-21T07:54:54.170Z,21.17
2023-05-21T07:57:28.285Z,20.39
2023-05-21T08:00:19.169Z,19.97
2023-05-21T08:02:57.475Z,19.60
2023-05-21T08:05:48.014Z,19.95
2023-05-21T08:08:36.662Z,20.18
2023-05-21T08:11:10.326Z,20.02
2023-05-21T08:13:43.917Z,21.42
2023-05-21T08:16:17.709Z,24.10
2023-05-21T08:19:05.556Z,25.45
2023-05-21T08:21:53.319Z,26.73
2023-05-21T08:24:28.717Z,26.38
2023-05-21T08:27:17.058Z,28.56
2023-05-21T08:29:50.948Z,30.67
2023-05-21T08:32:24.558Z,32.33
2023-05-21T08:35:13.324Z,32.72
2023-05-21T08:38:02.768Z,32.95
2023-05-21T08:40:37.981Z,31.04
2023-05-21T08:43:13.055Z,30.14
2023-05-21T08:46:05.129Z,30.69
2023-05-21T08:48:41.575Z,29.11
2023-05-21T08:51:15.286Z,29.59
2023-05-21T08:54:05.973Z,31.41
2023-05-21T08:56:56.579Z,32.39
2023-05-21T08:59:30.268Z,32.01
2023-05-21T09:02:05.503Z,33.49
2023-05-21T09:04:57.513Z,34.58
2023-05-21T09:07:32.567Z,33.88
2023-05-21T09:10:24.557Z,32.57
2023-05-21T09:12:58.397Z,32.65
2023-05-21T09:15:47.449Z,33.03
2023-05-21T09:18:35.685Z,31.35
2023-05-21T09:21:27.502Z,29.64
2023-05-21T09:24:24.343Z,28.85
2023-05-21T09:27:12.387Z,29.12
2023-05-21T09:30:00.284Z,30.37
2023-05-21T09:32:35.697Z,30.59
2023-05-21T09:35:23.646Z,29.04
2023-05-21T09:37:58.607Z,29.80
2023-05-21T09:40:47.906Z,29.32
2023-05-21T09:43:23.719Z,27.50
2023-05-21T09:46:11.944Z,25.45
2023-05-21T09:48:45.928Z,25.78
2023-05-21T09:51:37.034Z,26.96
2023-05-21T09:54:12.054Z,25.95
2023-05-21T09:57:01.386Z,23.96
2023-05-21T09:59:41.349Z,23.03
2023-05-21T10:02:20.912Z,24.59
2023-05-21T10:05:11.852Z,23.70
2023-05-21T10:07:48.406Z,22.20
2023-05-21T10:10:23.343Z,24.24
2023-05-21T10:13:13.362Z,28.28
2023-05-21T10:16:03.429Z,30.71
2023-05-21T10:18:53.621Z,31.29
2023-05-21T10:21:42.325Z,29.55
2023-05-21T10:24:16.886Z,27.50
2023-05-21T10:27:06.157Z,25.50
2023-05-21T10:29:55.085Z,23.90
2023-05-21T10:32:31.014Z,22.60
2023-05-21T10:35:19.148Z,21.48
2023-05-21T10:38:08.130Z,20.68
2023-05-21T10:40:57.178Z,19.77
2023-05-21T10:43:48.662Z,18.99
2023-05-21T10:46:49.966Z,18.55
2023-05-21T10:49:55.821Z,18.35
2023-05-21T10:52:55.129Z,18.97
2023-05-21T10:55:40.387Z,19.01
2023-05-21T10:59:28.677Z,20.00
2023-05-21T11:02:22.942Z,23.80
2023-05-21T11:05:04.087Z,25.19
2023-05-21T11:07:57.237Z,28.85
2023-05-21T11:10:44.792Z,29.61
2023-05-21T11:13:19.871Z,31.86
2023-05-21T11:16:18.291Z,34.30
2023-05-21T11:19:04.557Z,35.81
2023-05-21T11:21:56.156Z,37.37
2023-05-21T11:24:30.950Z,35.61
2023-05-21T11:27:35.694Z,32.43
2023-05-21T11:30:23.369Z,28.92
2023-05-21T11:33:23.084Z,26.88
2023-05-21T11:36:01.261Z,25.51
2023-05-21T11:38:34.798Z,24.47
2023-05-21T11:41:23.677Z,23.80
2023-05-21T11:44:04.154Z,23.32
2023-05-21T11:46:52.860Z,23.86
2023-05-21T11:49:29.134Z,24.12
2023-05-21T11:52:03.279Z,23.80
2023-05-21T11:54:41.759Z,23.33
2023-05-21T11:57:31.383Z,22.21
2023-05-21T12:00:09.344Z,20.59
2023-05-21T12:03:18.322Z,19.40
2023-05-21T12:05:54.076Z,18.62
2023-05-21T12:08:42.227Z,18.46
2023-05-21T12:11:15.788Z,18.31
2023-05-21T12:13:51.014Z,18.21
2023-05-21T12:16:38.697Z,18.25
2023-05-21T12:19:12.527Z,18.00
2023-05-21T12:21:46.819Z,17.94
2023-05-21T12:24:20.344Z,17.98
2023-05-21T12:27:10.354Z,18.07
2023-05-21T12:29:45.817Z,17.90
2023-05-21T12:32:19.709Z,17.99
2023-05-21T12:35:08.717Z,17.98
2023-05-21T12:37:42.190Z,17.74
2023-05-21T12:40:39.829Z,17.93
2023-05-21T12:43:13.941Z,17.99
2023-05-21T12:46:01.617Z,18.52
2023-05-21T12:48:35.007Z,18.77
2023-05-21T12:51:23.069Z,19.69
2023-05-21T12:54:16.639Z,21.12
2023-05-21T12:56:50.726Z,22.46
2023-05-21T12:59:51.530Z,22.86
2023-05-21T13:02:26.577Z,23.04
2023-05-21T13:05:01.518Z,23.24
2023-05-21T13:07:50.964Z,22.39
2023-05-21T13:10:38.853Z,21.79
2023-05-21T13:13:12.564Z,21.44
2023-05-21T13:16:06.732Z,23.75
2023-05-21T13:18:39.985Z,25.01
2023-05-21T13:21:27.799Z,25.10
2023-05-21T13:24:01.068Z,24.34
2023-05-21T13:26:50.507Z,23.40
2023-05-21T13:29:24.023Z,22.90
2023-05-21T13:32:12.086Z,24.08
2023-05-21T13:34:45.586Z,23.70
2023-05-21T13:37:33.492Z,24.14
2023-05-21T13:40:11.087Z,24.90
2023-05-21T13:42:59.987Z,24.85
2023-05-21T13:45:34.016Z,24.00
2023-05-21T13:48:21.768Z,23.67
2023-05-21T13:50:55.266Z,24.40
2023-05-21T13:53:28.933Z,25.14
2023-05-21T13:56:16.498Z,25.94
2023-05-21T13:58:50.048Z,25.98
2023-05-21T14:01:37.800Z,26.55
2023-05-21T14:04:25.656Z,26.90
2023-05-21T14:07:13.757Z,27.07
2023-05-21T14:10:01.670Z,27.61
2023-05-21T14:12:48.995Z,27.77
2023-05-21T14:15:22.458Z,27.61
2023-05-21T14:18:12.477Z,27.51
2023-05-21T14:20:45.722Z,28.12
2023-05-21T14:23:19.087Z,28.93
2023-05-21T14:26:07.370Z,27.69
2023-05-21T14:29:21.458Z,25.66
2023-05-21T14:32:10.840Z,24.28
2023-05-21T14:34:44.684Z,22.92
2023-05-21T14:37:32.192Z,22.60
2023-05-21T14:40:07.960Z,21.84
2023-05-21T14:42:56.319Z,21.19
2023-05-21T14:45:44.990Z,20.75
2023-05-21T14:48:20.876Z,20.23
2023-05-21T14:51:09.520Z,20.11
2023-05-21T14:53:43.095Z,19.83
2023-05-21T14:56:30.735Z,19.90
2023-05-21T14:59:04.143Z,19.63
2023-05-21T15:01:51.721Z,20.13
2023-05-21T15:04:25.385Z,20.49
2023-05-21T15:07:13.005Z,20.37
2023-05-21T15:09:46.674Z,19.87
2023-05-21T15:12:19.708Z,19.82
2023-05-21T15:15:09.427Z,20.23
2023-05-21T15:17:58.252Z,20.74
2023-05-21T15:20:31.778Z,20.90
2023-05-21T15:23:19.519Z,21.24
2023-05-21T15:25:53.161Z,20.84
2023-05-21T15:28:40.669Z,20.57
2023-05-21T15:31:14.008Z,19.73
2023-05-21T15:33:47.752Z,19.18
2023-05-21T15:36:36.725Z,19.03
2023-05-21T15:39:10.600Z,18.64
2023-05-21T15:41:58.302Z,18.56
2023-05-21T15:44:31.538Z,18.45
2023-05-21T15:47:19.244Z,18.54
2023-05-21T15:50:08.093Z,18.48
2023-05-21T15:52:42.647Z,18.11
2023-05-21T15:55:16.239Z,17.88
2023-05-21T15:58:05.628Z,17.84
2023-05-21T16:00:39.314Z,17.66
2023-05-21T16:03:14.795Z,17.53
2023-05-21T16:06:02.410Z,17.57
2023-05-21T16:08:36.011Z,17.46
2023-05-21T16:11:24.169Z,17.55
2023-05-21T16:14:11.994Z,17.51
2023-05-21T16:16:45.617Z,17.39
2023-05-21T16:19:33.870Z,17.54
2023-05-21T16:22:09.308Z,17.29
2023-05-21T16:24:56.841Z,17.33
2023-05-21T16:27:44.446Z,17.30
2023-05-21T16:30:18.026Z,17.26
2023-05-21T16:33:05.987Z,17.38
2023-05-21T16:35:54.403Z,17.39
2023-05-21T16:38:27.822Z,17.26
2023-05-21T16:41:15.746Z,17.36
2023-05-21T16:43:49.007Z,17.22
2023-05-21T16:46:36.766Z,17.31
2023-05-21T16:49:10.045Z,17.15
2023-05-21T16:51:57.743Z,17.18
2023-05-21T16:54:47.730Z,17.13
2023-05-21T16:57:35.816Z,17.09
2023-05-21T17:00:24.038Z,17.12
2023-05-21T17:03:11.970Z,17.08
2023-05-21T17:05:45.550Z,16.85
2023-05-21T17:08:33.153Z,17.02
2023-05-21T17:11:07.343Z,16.81
2023-05-21T17:13:41.137Z,16.67
2023-05-21T17:16:28.742Z,16.69
2023-05-21T17:19:02.905Z,16.60
2023-05-21T17:21:36.347Z,16.49
2023-05-21T17:24:10.854Z,16.36
2023-05-21T17:26:58.529Z,16.38
2023-05-21T17:29:32.517Z,16.16
2023-05-21T17:32:20.995Z,16.21
2023-05-21T17:34:54.526Z,16.06
2023-05-21T17:37:42.269Z,16.17
2023-05-21T17:40:18.397Z,16.06
2023-05-21T17:42:52.061Z,16.07
2023-05-21T17:45:25.684Z,16.10
2023-05-21T17:48:13.511Z,16.21
2023-05-21T17:50:47.569Z,16.07
2023-05-21T17:53:21.180Z,16.05
2023-05-21T17:56:11.375Z,16.15
2023-05-21T17:58:44.825Z,16.01
2023-05-21T18:01:32.876Z,16.13
2023-05-21T18:04:09.163Z,16.01
2023-05-21T18:06:56.835Z,16.09
2023-05-21T18:09:44.539Z,16.04
2023-05-21T18:12:18.568Z,15.93
2023-05-21T18:15:07.485Z,16.11
2023-05-21T18:17:40.878Z,16.01
2023-05-21T18:20:28.652Z,16.21
2023-05-21T18:23:16.257Z,16.28
2023-05-21T18:26:04.080Z,16.32
2023-05-21T18:28:37.890Z,16.23
2023-05-21T18:31:11.384Z,16.27
2023-05-21T18:33:58.931Z,16.38
2023-05-21T18:36:35.187Z,16.26
2023-05-21T18:39:24.932Z,16.36
2023-05-21T18:42:12.146Z,16.22
2023-05-21T18:44:50.700Z,16.30
2023-05-21T18:47:24.988Z,16.15
2023-05-21T18:50:15.384Z,16.19
2023-05-21T18:52:48.906Z,15.99
2023-05-21T18:55:37.376Z,16.03
2023-05-21T18:58:24.722Z,15.98
2023-05-21T19:01:12.658Z,15.92
2023-05-21T19:03:46.206Z,15.73
2023-05-21T19:06:22.216Z,15.62
2023-05-21T19:09:11.153Z,15.62
2023-05-21T19:11:48.158Z,15.43
2023-05-21T19:14:36.206Z,15.48
2023-05-21T19:17:09.636Z,15.30
2023-05-21T19:19:57.506Z,15.32
2023-05-21T19:22:31.284Z,15.09
2023-05-21T19:25:19.302Z,15.11
2023-05-21T19:28:07.035Z,15.03
2023-05-21T19:30:41.165Z,14.85
2023-05-21T19:33:28.922Z,14.88
2023-05-21T19:36:02.539Z,14.73
2023-05-21T19:38:50.818Z,14.79
2023-05-21T19:41:24.425Z,14.63
2023-05-21T19:44:12.125Z,14.72
2023-05-21T19:47:00.170Z,14.66
2023-05-21T19:49:33.796Z,14.53
2023-05-21T19:52:12.366Z,14.51
2023-05-21T19:55:02.820Z,14.62
2023-05-21T19:57:50.639Z,14.58
2023-05-21T20:00:25.852Z,14.44
2023-05-21T20:02:59.184Z,14.38
2023-05-21T20:05:32.830Z,14.34
2023-05-21T20:08:06.616Z,14.31
2023-05-21T20:10:54.801Z,14.42
2023-05-21T20:13:28.446Z,14.30
2023-05-21T20:16:02.201Z,14.30
2023-05-21T20:18:35.962Z,14.31
2023-05-21T20:21:09.493Z,14.26
2023-05-21T20:23:42.780Z,14.20
2023-05-21T20:26:16.878Z,14.16
2023-05-21T20:29:06.087Z,14.24
2023-05-21T20:31:39.631Z,14.10
2023-05-21T20:34:27.812Z,14.17
2023-05-21T20:37:15.537Z,14.13
2023-05-21T20:39:49.106Z,13.97
2023-05-21T20:42:23.562Z,13.91
2023-05-21T20:44:58.898Z,13.85
2023-05-21T20:47:48.090Z,13.94
2023-05-21T20:50:24.223Z,13.78
2023-05-21T20:52:58.108Z,13.75
2023-05-21T20:56:01.824Z,13.82
2023-05-21T20:58:42.491Z,13.66
2023-05-21T21:01:31.081Z,13.69
2023-05-21T21:04:19.112Z,13.63
2023-05-21T21:06:53.351Z,13.45
2023-05-21T21:09:40.629Z,13.52
2023-05-21T21:12:25.394Z,13.37
2023-05-21T21:15:03.725Z,13.47
2023-05-21T21:17:51.480Z,13.45
2023-05-21T21:20:24.930Z,13.31
2023-05-21T21:23:12.798Z,13.45
2023-05-21T21:25:46.694Z,13.33
2023-05-21T21:28:34.177Z,13.39
2023-05-21T21:31:21.952Z,13.33
2023-05-21T21:33:55.556Z,13.17
2023-05-21T21:36:42.971Z,13.35
2023-05-21T21:39:30.462Z,13.43
2023-05-21T21:42:04.509Z,13.34
2023-05-21T21:44:39.440Z,13.31
2023-05-21T21:47:12.978Z,13.26
2023-05-21T21:50:00.742Z,13.31
2023-05-21T21:52:37.028Z,13.15
2023-05-21T21:55:24.784Z,13.25
2023-05-21T21:57:58.241Z,13.12
2023-05-21T22:00:32.056Z,13.07
2023-05-21T22:03:05.670Z,13.04
2023-05-21T22:05:54.161Z,13.14
2023-05-21T22:08:28.846Z,13.00
2023-05-21T22:11:04.698Z,13.03
2023-05-21T22:13:53.960Z,13.19
2023-05-21T22:16:28.442Z,13.09
2023-05-21T22:19:17.780Z,13.22
2023-05-21T22:21:52.001Z,13.11
2023-05-21T22:24:39.680Z,13.20
2023-05-21T22:27:13.109Z,13.10
2023-05-21T22:30:00.894Z,13.25
2023-05-21T22:32:49.484Z,13.30
2023-05-21T22:35:23.632Z,13.24
2023-05-21T22:37:57.656Z,13.30
2023-05-21T22:40:45.587Z,13.46
2023-05-21T22:43:18.828Z,13.37
2023-05-21T22:46:06.440Z,13.49
2023-05-21T22:48:54.567Z,13.47
2023-05-21T22:51:43.560Z,13.48
2023-05-21T22:54:16.913Z,13.38
2023-05-21T22:57:05.297Z,13.49
2023-05-21T22:59:38.900Z,13.38
2023-05-21T23:02:26.812Z,13.48
2023-05-21T23:05:00.480Z,13.34
2023-05-21T23:07:35.599Z,13.33
2023-05-21T23:10:23.193Z,13.43
2023-05-21T23:12:56.539Z,13.30
2023-05-21T23:15:44.415Z,13.40
2023-05-21T23:18:18.220Z,13.25
2023-05-21T23:21:06.691Z,13.36
2023-05-21T23:23:54.269Z,13.36
2023-05-21T23:26:41.868Z,13.35
2023-05-21T23:29:15.189Z,13.21
2023-05-21T23:32:04.811Z,13.23
2023-05-21T23:34:38.477Z,13.03
2023-05-21T23:37:26.245Z,12.99
2023-05-21T23:40:15.373Z,12.89
2023-05-21T23:42:48.795Z,12.76
2023-05-21T23:45:36.537Z,12.86
2023-05-21T23:48:24.242Z,12.84
2023-05-21T23:50:57.777Z,12.66
2023-05-21T23:53:45.491Z,12.68
2023-05-21T23:56:33.179Z,12.60
2023-05-21T23:59:06.888Z,12.45
